Time;durP1;ratioP1;P1;durP2;ratioP2;P2;SDS_P1;SDS_P2;PMS_P1;PMS_P2;Temp;Humidity;BMP_temperature;BMP_pressure;BME280_temperature;BME280_humidity;BME280_pressure;Samples;Min_cycle;Max_cycle;Signal;HPM_P1;HPM_P2
2022/03/07 00:02:47;;;;;;;47.17;20.63;;;;;;;;;;8398253;28;20036;-82
2022/03/07 00:06:52;;;;;;;44.35;18.45;;;;;;;;;;8397164;28;20052;-82
2022/03/07 00:10:54;;;;;;;37.45;17.02;;;;;;;;;;8398248;28;20045;-82
2022/03/07 00:14:58;;;;;;;41.25;17.83;;;;;;;;;;8397901;28;20044;-82
2022/03/07 00:19:01;;;;;;;38.05;17.60;;;;;;;;;;8397716;28;20040;-82
2022/03/07 00:23:03;;;;;;;35.70;17.52;;;;;;;;;;8382056;28;20480;-82
2022/03/07 00:27:06;;;;;;;33.72;15.93;;;;;;;;;;8394239;28;20044;-83
2022/03/07 00:31:10;;;;;;;41.25;18.90;;;;;;;;;;8396696;28;20045;-84
2022/03/07 00:35:13;;;;;;;43.47;18.75;;;;;;;;;;8389187;28;20500;-81
2022/03/07 00:39:17;;;;;;;35.40;16.77;;;;;;;;;;8397485;28;20110;-79
2022/03/07 00:43:21;;;;;;;36.50;16.70;;;;;;;;;;8397072;28;20044;-80
2022/03/07 00:47:25;;;;;;;34.05;15.73;;;;;;;;;;8389378;28;20127;-80
2022/03/07 00:51:28;;;;;;;36.70;16.13;;;;;;;;;;8394880;28;20400;-81
2022/03/07 00:55:33;;;;;;;39.80;17.75;;;;;;;;;;8396843;28;20048;-81
2022/03/07 00:59:36;;;;;;;34.17;17.67;;;;;;;;;;8396846;28;20041;-79
2022/03/07 01:03:40;;;;;;;43.67;16.40;;;;;;;;;;8383616;28;20126;-80
2022/03/07 01:07:43;;;;;;;33.80;16.50;;;;;;;;;;8396614;28;20389;-81
2022/03/07 01:11:45;;;;;;;38.47;17.65;;;;;;;;;;8385724;28;20041;-80
2022/03/07 01:15:48;;;;;;;42.30;17.63;;;;;;;;;;8388304;28;20044;-79
2022/03/07 01:19:52;;;;;;;38.00;17.17;;;;;;;;;;8395933;28;20484;-80
2022/03/07 01:23:54;;;;;;;34.00;16.65;;;;;;;;;;8396240;28;20052;-79
2022/03/07 01:27:57;;;;;;;37.92;17.77;;;;;;;;;;8396171;28;20052;-79
2022/03/07 01:31:59;;;;;;;38.88;17.20;;;;;;;;;;8378791;28;20061;-79
2022/03/07 01:36:04;;;;;;;38.67;17.02;;;;;;;;;;8381752;28;20045;-79
2022/03/07 01:40:08;;;;;;;37.85;16.25;;;;;;;;;;8396218;28;20088;-82
2022/03/07 01:44:17;;;;;;;36.05;15.93;;;;;;;;;;8396363;28;20049;-81
2022/03/07 01:48:20;;;;;;;31.90;14.75;;;;;;;;;;8397767;28;20094;-83
2022/03/07 01:52:24;;;;;;;32.10;16.27;;;;;;;;;;8391214;28;20064;-84
2022/03/07 01:56:27;;;;;;;35.08;16.00;;;;;;;;;;8385611;28;20036;-81
2022/03/07 02:00:29;;;;;;;37.90;15.48;;;;;;;;;;8396877;28;20109;-81
2022/03/07 02:04:32;;;;;;;33.83;16.27;;;;;;;;;;8396696;28;20052;-80
2022/03/07 02:08:36;;;;;;;27.83;14.88;;;;;;;;;;8397333;28;20041;-80
2022/03/07 02:12:39;;;;;;;34.70;16.20;;;;;;;;;;8398327;28;20045;-85
2022/03/07 02:16:42;;;;;;;30.92;15.27;;;;;;;;;;8399617;28;20048;-83
2022/03/07 02:20:45;;;;;;;32.33;15.30;;;;;;;;;;8394522;28;20048;-89
2022/03/07 02:24:49;;;;;;;33.28;15.95;;;;;;;;;;8383705;28;20052;-83
2022/03/07 02:28:52;;;;;;;30.77;13.88;;;;;;;;;;8400943;28;20044;-82
2022/03/07 02:32:54;;;;;;;35.88;15.48;;;;;;;;;;8400815;28;20053;-82
2022/03/07 02:36:57;;;;;;;31.95;15.57;;;;;;;;;;8401132;28;20122;-81
2022/03/07 02:41:01;;;;;;;33.67;15.75;;;;;;;;;;8387272;28;20139;-83
2022/03/07 02:45:04;;;;;;;30.30;16.10;;;;;;;;;;8394903;28;20091;-82
2022/03/07 02:49:07;;;;;;;32.20;15.45;;;;;;;;;;8400946;28;20048;-81
2022/03/07 02:53:10;;;;;;;37.83;16.08;;;;;;;;;;8394922;28;20059;-82
2022/03/07 02:57:14;;;;;;;28.48;14.52;;;;;;;;;;8400613;28;20052;-80
2022/03/07 03:01:16;;;;;;;31.95;13.90;;;;;;;;;;8398271;28;20052;-82
2022/03/07 03:05:19;;;;;;;31.35;14.75;;;;;;;;;;8400636;28;20123;-81
2022/03/07 03:09:22;;;;;;;30.63;15.82;;;;;;;;;;8400141;28;20404;-80
2022/03/07 03:13:26;;;;;;;30.98;15.38;;;;;;;;;;8400116;28;20079;-81
2022/03/07 03:17:28;;;;;;;34.33;15.52;;;;;;;;;;8399970;28;20040;-79
2022/03/07 03:21:31;;;;;;;29.67;14.90;;;;;;;;;;8392670;28;20052;-80
2022/03/07 03:25:34;;;;;;;32.38;14.77;;;;;;;;;;8399967;28;20434;-82
2022/03/07 03:29:37;;;;;;;31.83;15.55;;;;;;;;;;8399724;28;20252;-81
2022/03/07 03:33:42;;;;;;;34.97;15.45;;;;;;;;;;8577734;22;20056;-80
2022/03/07 03:37:44;;;;;;;29.42;15.63;;;;;;;;;;8366628;28;20052;-79
2022/03/07 03:41:47;;;;;;;32.17;15.65;;;;;;;;;;8351875;28;20499;-78
2022/03/07 03:45:51;;;;;;;36.67;15.55;;;;;;;;;;8332937;28;20069;-74
2022/03/07 03:49:53;;;;;;;32.40;16.42;;;;;;;;;;8333643;28;20088;-75
2022/03/07 03:53:56;;;;;;;37.47;17.30;;;;;;;;;;8322461;28;20493;-79
2022/03/07 03:57:59;;;;;;;36.97;17.98;;;;;;;;;;8300630;28;20609;-81
2022/03/07 04:02:04;;;;;;;48.67;21.13;;;;;;;;;;8315956;28;20046;-74
2022/03/07 04:06:08;;;;;;;36.88;18.73;;;;;;;;;;8333521;28;20094;-78
2022/03/07 04:10:13;;;;;;;41.78;18.55;;;;;;;;;;8332412;28;20045;-79
2022/03/07 04:14:16;;;;;;;41.00;18.05;;;;;;;;;;8331867;28;20050;-76
2022/03/07 04:18:20;;;;;;;41.83;17.85;;;;;;;;;;8332498;28;20049;-75
2022/03/07 04:22:23;;;;;;;43.17;19.05;;;;;;;;;;8331889;28;20041;-81
2022/03/07 04:26:25;;;;;;;38.42;17.40;;;;;;;;;;8331521;28;20091;-78
2022/03/07 04:30:28;;;;;;;33.10;16.27;;;;;;;;;;8331569;28;20111;-81
2022/03/07 04:34:32;;;;;;;31.80;17.25;;;;;;;;;;8331413;28;20073;-79
2022/03/07 04:38:35;;;;;;;36.42;17.48;;;;;;;;;;8331463;28;20049;-82
2022/03/07 04:42:37;;;;;;;38.38;16.60;;;;;;;;;;8331479;28;20565;-79
2022/03/07 04:46:41;;;;;;;36.40;17.38;;;;;;;;;;8331350;28;20052;-77
2022/03/07 04:50:45;;;;;;;38.92;17.77;;;;;;;;;;8331445;28;20097;-79
2022/03/07 04:54:47;;;;;;;33.28;17.63;;;;;;;;;;8331137;28;20048;-78
2022/03/07 04:58:50;;;;;;;34.00;16.65;;;;;;;;;;8331019;28;20045;-75
2022/03/07 05:02:53;;;;;;;34.13;17.17;;;;;;;;;;8330402;28;20048;-79
2022/03/07 05:07:00;;;;;;;36.45;18.30;;;;;;;;;;8330782;28;20052;-80
2022/03/07 05:11:03;;;;;;;37.22;19.55;;;;;;;;;;8298237;28;20478;-78
2022/03/07 05:15:06;;;;;;;37.72;18.20;;;;;;;;;;8298154;28;20045;-77
2022/03/07 05:19:09;;;;;;;41.85;22.20;;;;;;;;;;8297633;28;20045;-78
2022/03/07 05:23:12;;;;;;;32.38;17.05;;;;;;;;;;8323742;28;20053;-76
2022/03/07 05:27:15;;;;;;;35.05;17.13;;;;;;;;;;8330651;28;20058;-74
2022/03/07 05:31:19;;;;;;;36.10;16.70;;;;;;;;;;8330522;28;20049;-75
2022/03/07 05:35:23;;;;;;;34.38;16.05;;;;;;;;;;8332780;28;20053;-74
2022/03/07 05:39:27;;;;;;;33.30;16.33;;;;;;;;;;8337148;28;20056;-80
2022/03/07 05:43:29;;;;;;;41.25;19.27;;;;;;;;;;8337076;28;20061;-75
2022/03/07 05:47:32;;;;;;;45.97;18.85;;;;;;;;;;8336918;28;20400;-77
2022/03/07 05:51:34;;;;;;;40.47;18.42;;;;;;;;;;8338640;28;20044;-78
2022/03/07 05:55:38;;;;;;;33.92;16.83;;;;;;;;;;8338830;28;20049;-76
2022/03/07 05:59:41;;;;;;;29.92;16.02;;;;;;;;;;8351108;28;20060;-78
2022/03/07 06:03:44;;;;;;;36.90;17.48;;;;;;;;;;8350149;28;20037;-80
2022/03/07 06:07:46;;;;;;;43.72;20.27;;;;;;;;;;8353319;28;20049;-77
2022/03/07 06:11:50;;;;;;;40.67;18.67;;;;;;;;;;8335908;28;20042;-80
2022/03/07 06:15:53;;;;;;;36.97;17.25;;;;;;;;;;8365824;28;20067;-81
2022/03/07 06:19:56;;;;;;;39.50;17.17;;;;;;;;;;8345031;28;20044;-81
2022/03/07 06:23:59;;;;;;;43.80;16.40;;;;;;;;;;8350750;28;20045;-77
2022/03/07 06:28:03;;;;;;;38.53;16.33;;;;;;;;;;8336997;28;20127;-80
2022/03/07 06:32:07;;;;;;;30.67;15.88;;;;;;;;;;8337832;28;20054;-80
2022/03/07 06:36:10;;;;;;;29.25;14.00;;;;;;;;;;8368241;28;20049;-79
2022/03/07 06:40:13;;;;;;;32.17;13.20;;;;;;;;;;8364437;28;20141;-80
2022/03/07 06:44:17;;;;;;;25.25;12.48;;;;;;;;;;8337344;28;20052;-75
2022/03/07 06:48:25;;;;;;;32.65;13.52;;;;;;;;;;8341664;28;20056;-77
2022/03/07 06:52:29;;;;;;;21.48;11.48;;;;;;;;;;8342140;28;20049;-85
2022/03/07 06:56:31;;;;;;;22.40;11.48;;;;;;;;;;8334271;28;20471;-78
2022/03/07 07:00:36;;;;;;;20.58;10.50;;;;;;;;;;8358106;28;20366;-76
2022/03/07 07:04:39;;;;;;;23.70;12.57;;;;;;;;;;8333850;28;20056;-80
2022/03/07 07:08:42;;;;;;;28.23;10.95;;;;;;;;;;8334839;28;20042;-88
2022/03/07 07:12:44;;;;;;;23.92;11.93;;;;;;;;;;8333889;28;20044;-75
2022/03/07 07:16:49;;;;;;;24.15;13.70;;;;;;;;;;8333327;28;20453;-74
2022/03/07 07:20:51;;;;;;;22.00;11.07;;;;;;;;;;8334107;28;20405;-83
2022/03/07 07:24:54;;;;;;;36.35;15.57;;;;;;;;;;8334199;28;20050;-76
2022/03/07 07:28:57;;;;;;;32.47;16.17;;;;;;;;;;8333230;28;20106;-88
2022/03/07 07:33:01;;;;;;;27.38;11.50;;;;;;;;;;8332982;28;20137;-78
2022/03/07 07:37:04;;;;;;;24.27;10.27;;;;;;;;;;8332280;28;20038;-79
2022/03/07 07:41:06;;;;;;;21.30;10.48;;;;;;;;;;8333135;28;20038;-75
2022/03/07 07:45:14;;;;;;;27.10;13.90;;;;;;;;;;8333628;28;20049;-81
2022/03/07 07:49:18;;;;;;;29.10;12.90;;;;;;;;;;8332668;28;20065;-77
2022/03/07 07:53:21;;;;;;;22.38;11.55;;;;;;;;;;8331871;28;20091;-85
2022/03/07 07:57:24;;;;;;;22.35;11.02;;;;;;;;;;8360887;28;20076;-75
2022/03/07 08:01:29;;;;;;;26.23;14.20;;;;;;;;;;8343079;28;20041;-85
2022/03/07 08:05:33;;;;;;;15.95;8.65;;;;;;;;;;8331384;28;20180;-78
2022/03/07 08:09:36;;;;;;;20.40;9.82;;;;;;;;;;8331396;28;20049;-83
2022/03/07 08:13:39;;;;;;;17.95;8.93;;;;;;;;;;8331118;28;20102;-84
2022/03/07 08:17:46;;;;;;;17.67;9.65;;;;;;;;;;8330270;28;20518;-86
2022/03/07 08:21:51;;;;;;;16.52;9.15;;;;;;;;;;8357184;28;20155;-78
2022/03/07 08:25:54;;;;;;;16.83;9.30;;;;;;;;;;8344754;28;20049;-87
2022/03/07 08:29:57;;;;;;;16.55;8.25;;;;;;;;;;8331561;28;20045;-80
2022/03/07 08:34:00;;;;;;;15.40;8.60;;;;;;;;;;8309522;28;20481;-77
2022/03/07 08:38:05;;;;;;;15.07;7.55;;;;;;;;;;8319454;28;20042;-76
2022/03/07 08:42:10;;;;;;;14.00;7.03;;;;;;;;;;8297218;28;20056;-77
2022/03/07 08:46:13;;;;;;;14.95;7.55;;;;;;;;;;8302443;28;20103;-84
2022/03/07 08:50:18;;;;;;;11.82;6.97;;;;;;;;;;8293139;28;20057;-80
2022/03/07 08:54:22;;;;;;;13.20;7.53;;;;;;;;;;8299223;28;20121;-92
2022/03/07 08:58:25;;;;;;;12.23;7.15;;;;;;;;;;8300365;28;20042;-87
2022/03/07 09:02:29;;;;;;;14.05;7.82;;;;;;;;;;8300941;28;20092;-82
2022/03/07 09:06:34;;;;;;;16.02;7.20;;;;;;;;;;8302305;28;20045;-92
2022/03/07 09:10:38;;;;;;;16.20;6.82;;;;;;;;;;8298180;28;20073;-88
2022/03/07 09:14:43;;;;;;;14.25;7.00;;;;;;;;;;8297814;28;20053;-87
2022/03/07 09:18:45;;;;;;;14.52;7.57;;;;;;;;;;8297646;28;20076;-82
2022/03/07 09:22:49;;;;;;;14.73;7.13;;;;;;;;;;8297194;28;20393;-83
2022/03/07 09:26:53;;;;;;;14.38;6.88;;;;;;;;;;8296930;28;20130;-78
2022/03/07 09:30:56;;;;;;;15.00;6.82;;;;;;;;;;8276054;28;20038;-78
2022/03/07 09:34:59;;;;;;;17.85;8.30;;;;;;;;;;8296569;28;20696;-77
2022/03/07 09:39:04;;;;;;;12.38;5.93;;;;;;;;;;8296083;28;20041;-77
2022/03/07 09:43:11;;;;;;;10.48;5.90;;;;;;;;;;8297686;28;20069;-78
2022/03/07 09:47:18;;;;;;;11.13;5.13;;;;;;;;;;8296921;28;20045;-80
2022/03/07 09:51:21;;;;;;;11.40;6.00;;;;;;;;;;8298946;28;20507;-79
2022/03/07 09:55:25;;;;;;;11.05;5.35;;;;;;;;;;8296422;28;20045;-82
2022/03/07 09:59:31;;;;;;;11.63;6.88;;;;;;;;;;8297758;28;20046;-85
2022/03/07 10:03:35;;;;;;;11.40;6.05;;;;;;;;;;8327252;28;20041;-78
2022/03/07 10:07:44;;;;;;;11.52;6.35;;;;;;;;;;8296998;28;20425;-79
2022/03/07 10:11:53;;;;;;;9.43;5.20;;;;;;;;;;8295342;28;20096;-81
2022/03/07 10:16:01;;;;;;;13.55;5.50;;;;;;;;;;8276657;28;20471;-78
2022/03/07 10:20:06;;;;;;;13.18;6.45;;;;;;;;;;8295465;28;20038;-79
2022/03/07 10:24:09;;;;;;;12.98;6.70;;;;;;;;;;8293596;28;20398;-79
2022/03/07 10:28:15;;;;;;;12.75;5.47;;;;;;;;;;8319473;28;20416;-78
2022/03/07 10:32:22;;;;;;;10.57;5.63;;;;;;;;;;8325302;28;20652;-79
2022/03/07 10:36:31;;;;;;;12.40;6.15;;;;;;;;;;8318943;28;20401;-79
2022/03/07 10:40:37;;;;;;;7.30;4.68;;;;;;;;;;8319543;28;20049;-82
2022/03/07 10:44:39;;;;;;;11.45;5.15;;;;;;;;;;8302057;28;20485;-81
2022/03/07 10:48:44;;;;;;;10.95;5.82;;;;;;;;;;8308355;28;20116;-82
2022/03/07 10:52:48;;;;;;;9.85;5.15;;;;;;;;;;8302854;28;20034;-79
2022/03/07 10:56:52;;;;;;;13.43;6.10;;;;;;;;;;8323072;28;20096;-87
2022/03/07 11:00:57;;;;;;;8.63;5.07;;;;;;;;;;8327914;28;20046;-87
2022/03/07 11:05:02;;;;;;;7.30;4.13;;;;;;;;;;8323174;28;20121;-86
2022/03/07 11:09:04;;;;;;;12.85;6.55;;;;;;;;;;8318112;28;20504;-86
2022/03/07 11:13:10;;;;;;;16.95;7.03;;;;;;;;;;8330402;28;20038;-80
2022/03/07 11:17:16;;;;;;;11.93;5.30;;;;;;;;;;8325783;28;20049;-84
2022/03/07 11:21:22;;;;;;;10.85;5.20;;;;;;;;;;8315469;28;20520;-90
2022/03/07 11:25:28;;;;;;;10.48;5.53;;;;;;;;;;8307085;28;20485;-80
2022/03/07 11:29:36;;;;;;;9.57;4.97;;;;;;;;;;8268483;28;20042;-84
2022/03/07 11:33:49;;;;;;;12.82;5.60;;;;;;;;;;8276954;28;20050;-80
2022/03/07 11:37:53;;;;;;;11.60;5.43;;;;;;;;;;8300148;28;20520;-76
2022/03/07 11:41:56;;;;;;;9.27;3.90;;;;;;;;;;8298836;28;20105;-77
2022/03/07 11:46:02;;;;;;;11.15;5.25;;;;;;;;;;8301252;28;20037;-77
2022/03/07 11:50:07;;;;;;;10.65;5.60;;;;;;;;;;8302835;28;20042;-85
2022/03/07 11:54:21;;;;;;;11.05;5.18;;;;;;;;;;8295880;28;20041;-86
2022/03/07 11:58:29;;;;;;;9.25;4.85;;;;;;;;;;8326067;28;20425;-79
2022/03/07 12:02:40;;;;;;;16.17;6.18;;;;;;;;;;8313668;28;20591;-88
2022/03/07 12:06:46;;;;;;;10.90;6.00;;;;;;;;;;8313679;28;20238;-86
2022/03/07 12:10:58;;;;;;;12.95;6.28;;;;;;;;;;8297593;28;20046;-81
2022/03/07 12:15:08;;;;;;;14.15;6.10;;;;;;;;;;8285255;28;20398;-86
2022/03/07 12:19:13;;;;;;;12.07;6.03;;;;;;;;;;8313340;28;20037;-87
2022/03/07 12:23:18;;;;;;;12.13;7.05;;;;;;;;;;8314277;28;20048;-81
2022/03/07 12:27:24;;;;;;;9.80;5.30;;;;;;;;;;8314832;28;20048;-87
2022/03/07 12:31:27;;;;;;;13.85;5.93;;;;;;;;;;8311102;28;20503;-88
2022/03/07 12:35:30;;;;;;;10.50;5.57;;;;;;;;;;8302645;28;20057;-80
2022/03/07 12:39:47;;;;;;;10.52;5.03;;;;;;;;;;8306850;28;20041;-79
2022/03/07 12:43:53;;;;;;;9.18;5.15;;;;;;;;;;8316138;28;20125;-78
2022/03/07 12:47:57;;;;;;;15.95;6.47;;;;;;;;;;8294605;28;20470;-83
2022/03/07 12:52:04;;;;;;;13.68;5.65;;;;;;;;;;8286104;28;20083;-83
2022/03/07 12:56:07;;;;;;;16.92;7.57;;;;;;;;;;8289835;28;20048;-82
2022/03/07 13:00:16;;;;;;;9.60;4.90;;;;;;;;;;8291473;28;20494;-79
2022/03/07 13:04:20;;;;;;;12.95;5.50;;;;;;;;;;8293403;28;20128;-82
2022/03/07 13:08:22;;;;;;;9.35;5.38;;;;;;;;;;8294383;28;20076;-79
2022/03/07 13:12:26;;;;;;;12.23;5.90;;;;;;;;;;8296382;28;20069;-79
2022/03/07 13:16:33;;;;;;;11.85;5.82;;;;;;;;;;8293912;28;20185;-80
2022/03/07 13:20:37;;;;;;;12.70;5.65;;;;;;;;;;8302335;28;20116;-78
2022/03/07 13:24:40;;;;;;;13.10;6.45;;;;;;;;;;8291623;28;20115;-77
2022/03/07 13:28:43;;;;;;;14.50;5.78;;;;;;;;;;8313746;28;20057;-78
2022/03/07 13:32:48;;;;;;;16.30;5.97;;;;;;;;;;8296209;28;20069;-77
2022/03/07 13:36:55;;;;;;;11.05;5.80;;;;;;;;;;8329096;28;20124;-78
2022/03/07 13:41:07;;;;;;;9.65;6.35;;;;;;;;;;8344997;28;20045;-77
2022/03/07 13:45:13;;;;;;;11.02;6.50;;;;;;;;;;8349521;28;20560;-80
2022/03/07 13:49:18;;;;;;;17.77;8.50;;;;;;;;;;8332245;28;20045;-79
2022/03/07 13:53:25;;;;;;;11.55;5.75;;;;;;;;;;8341585;28;20049;-79
2022/03/07 13:57:33;;;;;;;9.15;4.93;;;;;;;;;;8334777;28;20045;-80
2022/03/07 14:01:37;;;;;;;9.07;5.03;;;;;;;;;;8333712;28;20087;-83
2022/03/07 14:05:45;;;;;;;8.50;4.32;;;;;;;;;;8332215;28;20057;-78
2022/03/07 14:09:54;;;;;;;14.98;6.53;;;;;;;;;;8337198;28;20041;-77
2022/03/07 14:13:58;;;;;;;9.15;4.55;;;;;;;;;;8334791;28;20469;-79
2022/03/07 14:18:05;;;;;;;10.02;5.13;;;;;;;;;;8332397;28;20047;-78
2022/03/07 14:22:18;;;;;;;13.32;7.30;;;;;;;;;;8336498;28;20061;-78
2022/03/07 14:26:26;;;;;;;13.80;6.55;;;;;;;;;;8339553;28;20053;-79
2022/03/07 14:30:31;;;;;;;17.50;7.40;;;;;;;;;;8341867;28;20408;-79
2022/03/07 14:34:36;;;;;;;17.33;8.18;;;;;;;;;;8351041;28;20068;-84
2022/03/07 14:38:42;;;;;;;18.98;9.13;;;;;;;;;;8335147;28;20133;-83
2022/03/07 14:42:49;;;;;;;10.05;4.00;;;;;;;;;;8331092;28;20575;-79
2022/03/07 14:46:55;;;;;;;12.90;4.47;;;;;;;;;;8334396;28;20053;-79
2022/03/07 14:51:00;;;;;;;11.07;4.25;;;;;;;;;;8340420;28;20041;-77
2022/03/07 14:55:09;;;;;;;11.00;4.57;;;;;;;;;;8342014;28;20472;-77
2022/03/07 14:59:15;;;;;;;12.23;5.72;;;;;;;;;;8337806;28;20183;-77
2022/03/07 15:03:20;;;;;;;9.68;5.25;;;;;;;;;;8314881;28;20041;-77
2022/03/07 15:07:26;;;;;;;14.43;5.45;;;;;;;;;;8333264;28;20160;-78
2022/03/07 15:11:37;;;;;;;16.35;7.05;;;;;;;;;;8324627;28;20094;-78
2022/03/07 15:15:44;;;;;;;15.20;7.90;;;;;;;;;;8298519;28;20156;-87
2022/03/07 15:20:06;;;;;;;11.63;6.03;;;;;;;;;;8344465;28;20040;-84
2022/03/07 15:24:19;;;;;;;17.70;6.30;;;;;;;;;;8330204;28;20183;-78
2022/03/07 15:28:27;;;;;;;12.60;6.18;;;;;;;;;;8347141;28;20053;-79
2022/03/07 15:32:40;;;;;;;13.55;6.35;;;;;;;;;;8330542;28;20629;-77
2022/03/07 15:36:44;;;;;;;17.70;7.78;;;;;;;;;;8321976;28;20049;-76
2022/03/07 15:40:48;;;;;;;21.55;9.80;;;;;;;;;;8330410;28;20038;-76
2022/03/07 15:44:52;;;;;;;45.22;16.15;;;;;;;;;;8304053;28;20452;-76
2022/03/07 15:48:56;;;;;;;27.33;10.43;;;;;;;;;;8324633;28;20050;-78
2022/03/07 15:52:58;;;;;;;27.58;10.43;;;;;;;;;;8304161;28;20042;-76
2022/03/07 15:57:02;;;;;;;21.08;9.30;;;;;;;;;;8305550;28;20509;-79
2022/03/07 16:01:10;;;;;;;20.70;9.13;;;;;;;;;;8298909;28;20042;-78
2022/03/07 16:05:17;;;;;;;22.85;9.80;;;;;;;;;;8299882;28;20162;-77
2022/03/07 16:09:21;;;;;;;24.33;10.60;;;;;;;;;;8292244;28;20407;-76
2022/03/07 16:13:26;;;;;;;68.00;24.50;;;;;;;;;;8306382;28;20485;-76
2022/03/07 16:17:30;;;;;;;33.28;12.65;;;;;;;;;;8331718;28;20061;-75
2022/03/07 16:21:35;;;;;;;68.40;27.60;;;;;;;;;;8307385;28;20136;-78
2022/03/07 16:25:38;;;;;;;32.60;15.57;;;;;;;;;;8317256;28;20404;-78
2022/03/07 16:29:42;;;;;;;46.03;20.00;;;;;;;;;;8316183;28;20046;-77
2022/03/07 16:33:46;;;;;;;53.88;20.27;;;;;;;;;;8317346;28;20060;-77
2022/03/07 16:37:49;;;;;;;35.22;16.98;;;;;;;;;;8331132;28;20152;-77
2022/03/07 16:42:09;;;;;;;37.08;16.52;;;;;;;;;;8318953;28;20061;-76
2022/03/07 16:46:27;;;;;;;28.67;12.50;;;;;;;;;;8300279;28;20057;-77
2022/03/07 16:50:37;;;;;;;32.70;14.23;;;;;;;;;;8280330;28;20533;-77
2022/03/07 16:54:42;;;;;;;26.98;12.07;;;;;;;;;;8297560;28;20099;-77
2022/03/07 16:58:54;;;;;;;26.50;11.05;;;;;;;;;;8297805;28;20069;-77
2022/03/07 17:02:58;;;;;;;45.72;18.42;;;;;;;;;;8297721;28;20045;-77
2022/03/07 17:07:03;;;;;;;26.10;11.18;;;;;;;;;;8310432;28;20069;-81
2022/03/07 17:11:06;;;;;;;28.23;13.32;;;;;;;;;;8306628;28;20046;-78
2022/03/07 17:15:10;;;;;;;42.35;15.90;;;;;;;;;;8296416;28;20045;-80
2022/03/07 17:19:14;;;;;;;42.83;16.77;;;;;;;;;;8297684;28;20042;-79
2022/03/07 17:23:19;;;;;;;77.00;25.15;;;;;;;;;;8297787;28;20054;-78
2022/03/07 17:27:23;;;;;;;81.93;28.55;;;;;;;;;;8297716;28;20096;-76
2022/03/07 17:31:27;;;;;;;224.23;60.78;;;;;;;;;;8302623;28;20100;-82
2022/03/07 17:35:32;;;;;;;93.28;32.33;;;;;;;;;;8308753;28;20173;-83
2022/03/07 17:39:37;;;;;;;113.40;35.42;;;;;;;;;;8308323;28;20057;-77
2022/03/07 17:43:40;;;;;;;65.20;24.17;;;;;;;;;;8312056;28;20042;-82
2022/03/07 17:47:43;;;;;;;58.75;22.55;;;;;;;;;;8307490;28;20378;-79
2022/03/07 17:51:47;;;;;;;104.28;34.35;;;;;;;;;;8336587;28;20528;-78
2022/03/07 17:55:57;;;;;;;93.55;31.05;;;;;;;;;;8315603;28;20137;-83
2022/03/07 18:00:01;;;;;;;107.30;34.00;;;;;;;;;;8283578;28;21577;-77
2022/03/07 18:04:06;;;;;;;89.97;32.50;;;;;;;;;;8299406;28;20053;-79
2022/03/07 18:08:11;;;;;;;92.75;30.38;;;;;;;;;;8302204;28;20034;-82
2022/03/07 18:12:18;;;;;;;72.47;27.52;;;;;;;;;;8308999;28;20516;-82
2022/03/07 18:16:21;;;;;;;89.75;27.75;;;;;;;;;;8309216;28;20046;-82
2022/03/07 18:20:24;;;;;;;87.43;29.50;;;;;;;;;;8309999;28;20046;-81
2022/03/07 18:24:30;;;;;;;86.07;30.60;;;;;;;;;;8301397;28;20042;-82
2022/03/07 18:28:35;;;;;;;78.63;28.23;;;;;;;;;;8309783;28;20037;-80
2022/03/07 18:32:41;;;;;;;94.22;31.65;;;;;;;;;;8306034;28;20054;-82
2022/03/07 18:36:47;;;;;;;89.07;30.70;;;;;;;;;;8317353;28;20057;-81
2022/03/07 18:40:53;;;;;;;92.72;31.20;;;;;;;;;;8310822;28;20045;-82
2022/03/07 18:44:58;;;;;;;100.13;32.75;;;;;;;;;;8307419;28;20050;-80
2022/03/07 18:49:14;;;;;;;101.30;35.88;;;;;;;;;;8299522;28;20490;-82
2022/03/07 18:54:18;;;;;;;111.30;36.45;;;;;;;;;;8306737;28;20049;-81
2022/03/07 18:58:31;;;;;;;102.15;35.00;;;;;;;;;;8271324;28;20125;-82
2022/03/07 19:03:02;;;;;;;95.43;36.35;;;;;;;;;;8321195;28;20149;-81
2022/03/07 19:07:26;;;;;;;;;;;;;;;;;;8313022;28;20119;-81
2022/03/07 19:12:04;;;;;;;87.53;29.83;;;;;;;;;;8299301;28;20396;-82
2022/03/07 19:17:02;;;;;;;113.70;39.75;;;;;;;;;;8295469;28;20050;-78
2022/03/07 19:21:29;;;;;;;81.28;32.13;;;;;;;;;;8266424;28;20054;-75
2022/03/07 19:25:33;;;;;;;88.57;32.95;;;;;;;;;;8292289;28;20421;-76
2022/03/07 19:29:51;;;;;;;80.22;32.85;;;;;;;;;;8301524;28;20065;-75
2022/03/07 19:33:56;;;;;;;82.45;32.30;;;;;;;;;;8300419;28;20133;-77
2022/03/07 19:38:08;;;;;;;192.40;60.97;;;;;;;;;;8258212;28;20406;-81
2022/03/07 19:42:22;;;;;;;157.52;49.72;;;;;;;;;;8298328;28;20060;-81
2022/03/07 19:46:30;;;;;;;106.53;36.90;;;;;;;;;;8300394;28;20062;-78
2022/03/07 19:50:37;;;;;;;89.85;34.50;;;;;;;;;;8288240;28;20049;-77
2022/03/07 19:54:43;;;;;;;61.78;23.23;;;;;;;;;;8300171;28;20116;-77
2022/03/07 19:58:48;;;;;;;42.80;16.35;;;;;;;;;;8299421;28;20478;-77
2022/03/07 20:02:53;;;;;;;34.05;14.40;;;;;;;;;;8282137;28;20121;-78
2022/03/07 20:07:03;;;;;;;39.35;15.45;;;;;;;;;;8282146;28;20046;-78
2022/03/07 20:11:09;;;;;;;47.30;17.27;;;;;;;;;;8284315;28;20041;-77
2022/03/07 20:15:14;;;;;;;55.53;19.00;;;;;;;;;;8265906;28;20038;-77
2022/03/07 20:19:17;;;;;;;59.63;20.60;;;;;;;;;;8266135;28;20081;-76
2022/03/07 20:23:21;;;;;;;60.33;22.75;;;;;;;;;;8285085;28;20425;-77
2022/03/07 20:27:26;;;;;;;70.43;25.20;;;;;;;;;;8265090;28;20655;-77
2022/03/07 20:31:30;;;;;;;60.63;22.73;;;;;;;;;;8265302;28;20050;-76
2022/03/07 20:35:33;;;;;;;59.53;23.88;;;;;;;;;;8281260;28;20054;-79
2022/03/07 20:39:36;;;;;;;58.60;21.60;;;;;;;;;;8271731;28;20073;-78
2022/03/07 20:43:40;;;;;;;61.17;22.05;;;;;;;;;;8286601;28;20049;-78
2022/03/07 20:47:43;;;;;;;75.20;26.30;;;;;;;;;;8291650;28;20049;-79
2022/03/07 20:51:46;;;;;;;75.05;30.17;;;;;;;;;;8297486;28;20058;-79
2022/03/07 20:55:50;;;;;;;79.20;29.65;;;;;;;;;;8297789;28;20046;-78
2022/03/07 20:59:54;;;;;;;75.57;28.27;;;;;;;;;;8291701;28;20129;-80
2022/03/07 21:03:57;;;;;;;72.43;26.52;;;;;;;;;;8290946;28;20105;-79
2022/03/07 21:08:00;;;;;;;69.40;26.23;;;;;;;;;;8277267;28;20046;-79
2022/03/07 21:12:04;;;;;;;63.60;25.48;;;;;;;;;;8281948;28;20628;-77
2022/03/07 21:16:09;;;;;;;70.05;25.52;;;;;;;;;;8280314;28;20092;-79
2022/03/07 21:20:14;;;;;;;72.75;25.23;;;;;;;;;;8289458;28;20050;-78
2022/03/07 21:24:18;;;;;;;72.07;25.38;;;;;;;;;;8290698;28;20058;-78
2022/03/07 21:28:21;;;;;;;100.00;32.45;;;;;;;;;;8285522;28;20486;-76
2022/03/07 21:32:25;;;;;;;104.45;30.73;;;;;;;;;;8262994;28;20074;-78
2022/03/07 21:36:28;;;;;;;103.60;32.10;;;;;;;;;;8275698;28;20052;-77
2022/03/07 21:40:30;;;;;;;97.32;33.30;;;;;;;;;;8297751;28;20375;-78
2022/03/07 21:44:34;;;;;;;115.30;34.88;;;;;;;;;;8293591;28;20096;-77
2022/03/07 21:48:38;;;;;;;131.65;38.88;;;;;;;;;;8283241;28;20387;-78
2022/03/07 21:52:42;;;;;;;121.75;35.72;;;;;;;;;;8287352;28;20065;-77
2022/03/07 21:56:44;;;;;;;108.43;35.58;;;;;;;;;;8292968;28;20042;-77
2022/03/07 22:00:47;;;;;;;97.13;32.17;;;;;;;;;;8281395;28;20453;-77
2022/03/07 22:04:54;;;;;;;96.25;32.08;;;;;;;;;;8281978;28;20054;-77
2022/03/07 22:08:57;;;;;;;87.95;31.88;;;;;;;;;;8288567;28;20085;-77
2022/03/07 22:12:59;;;;;;;91.68;28.95;;;;;;;;;;8287362;28;20085;-77
2022/03/07 22:17:02;;;;;;;64.82;26.20;;;;;;;;;;8264870;28;20057;-77
2022/03/07 22:21:08;;;;;;;73.28;24.90;;;;;;;;;;8293996;28;20045;-77
2022/03/07 22:25:11;;;;;;;51.90;19.45;;;;;;;;;;8273948;28;20046;-77
2022/03/07 22:29:14;;;;;;;47.72;16.63;;;;;;;;;;8285935;28;20104;-77
2022/03/07 22:33:16;;;;;;;41.67;14.77;;;;;;;;;;8286032;28;20061;-77
2022/03/07 22:37:20;;;;;;;34.60;12.57;;;;;;;;;;8292494;28;20054;-77
2022/03/07 22:41:23;;;;;;;36.75;14.52;;;;;;;;;;8288119;28;20101;-77
2022/03/07 22:45:25;;;;;;;46.72;14.77;;;;;;;;;;8291487;28;20046;-77
2022/03/07 22:49:28;;;;;;;35.17;14.57;;;;;;;;;;8299831;28;20050;-77
2022/03/07 22:53:36;;;;;;;31.40;12.65;;;;;;;;;;8278020;28;20482;-76
2022/03/07 22:57:39;;;;;;;25.52;11.25;;;;;;;;;;8261829;28;20074;-76
2022/03/07 23:01:41;;;;;;;32.65;10.15;;;;;;;;;;8285310;28;20070;-77
2022/03/07 23:10:06;;;;;;;20.42;6.75;;;;;;;;;;8284154;28;20128;-79
2022/03/07 23:14:09;;;;;;;17.15;6.97;;;;;;;;;;8301871;28;20053;-78
2022/03/07 23:18:11;;;;;;;18.95;7.32;;;;;;;;;;8289426;28;20394;-77
2022/03/07 23:22:14;;;;;;;24.42;7.80;;;;;;;;;;8300982;28;20046;-77
2022/03/07 23:26:18;;;;;;;25.15;7.10;;;;;;;;;;8284415;28;20502;-78
2022/03/07 23:30:21;;;;;;;16.48;6.93;;;;;;;;;;8298484;28;20386;-77
2022/03/07 23:34:24;;;;;;;16.90;7.20;;;;;;;;;;8293175;28;20125;-77
2022/03/07 23:38:27;;;;;;;16.02;7.15;;;;;;;;;;8300101;28;20457;-77
2022/03/07 23:42:31;;;;;;;15.60;6.55;;;;;;;;;;8296117;28;20098;-76
2022/03/07 23:46:34;;;;;;;12.77;6.65;;;;;;;;;;8277416;28;20049;-76
2022/03/07 23:50:37;;;;;;;19.35;6.60;;;;;;;;;;8271375;28;20054;-77
2022/03/07 23:54:41;;;;;;;14.68;6.72;;;;;;;;;;8299803;28;20054;-77
2022/03/07 23:58:45;;;;;;;16.42;6.15;;;;;;;;;;8299899;28;20050;-77
